Time;durP1;ratioP1;P1;durP2;ratioP2;P2;SDS_P1;SDS_P2;PMS_P1;PMS_P2;Temp;Humidity;BMP_temperature;BMP_pressure;BME280_temperature;BME280_humidity;BME280_pressure;Samples;Min_cycle;Max_cycle;Signal;HPM_P1;HPM_P2
2022/12/17 13:07:35;;;;;;;75.63;49.13;;;0.00;99.90;;;;;;4929671;28;90458;-31
2022/12/17 13:10:01;;;;;;;79.10;48.50;;;0.00;99.90;;;;;;4930198;28;90496;-31
2022/12/17 13:12:44;;;;;;;79.68;49.42;;;-0.10;99.90;;;;;;4929927;28;90898;-31
2022/12/17 13:15:22;;;;;;;62.00;39.97;;;-0.20;99.90;;;;;;4929751;28;88208;-32
2022/12/17 13:18:23;;;;;;;66.85;44.05;;;-0.10;99.90;;;;;;4928824;28;90472;-32
2022/12/17 13:20:58;;;;;;;61.20;42.78;;;-0.10;99.90;;;;;;4919196;28;89602;-32
2022/12/17 13:23:35;;;;;;;80.03;48.28;;;-0.10;99.90;;;;;;4931378;28;89909;-30
2022/12/17 13:26:23;;;;;;;65.60;42.15;;;-0.20;99.90;;;;;;4931779;28;88553;-31
2022/12/17 13:29:10;;;;;;;71.93;44.50;;;-0.20;99.90;;;;;;4930786;28;90225;-32
2022/12/17 13:31:59;;;;;;;73.78;46.22;;;-0.20;99.90;;;;;;4930580;28;90124;-31
2022/12/17 13:34:42;;;;;;;75.88;51.17;;;-0.20;99.90;;;;;;4926950;28;89452;-31
2022/12/17 13:37:26;;;;;;;64.88;46.10;;;-0.20;99.90;;;;;;4929424;28;89536;-32
2022/12/17 13:40:19;;;;;;;65.47;45.15;;;-0.30;99.90;;;;;;4926846;28;90644;-32
2022/12/17 13:42:46;;;;;;;74.43;48.20;;;-0.20;99.90;;;;;;4936498;28;91180;-31
2022/12/17 13:45:17;;;;;;;69.13;44.22;;;-0.20;99.90;;;;;;4930146;28;89158;-31
2022/12/17 13:47:43;;;;;;;70.72;43.13;;;-0.20;99.90;;;;;;4929061;28;88407;-31
2022/12/17 13:50:27;;;;;;;72.25;45.17;;;-0.20;99.90;;;;;;4929321;28;90425;-31
2022/12/17 13:52:53;;;;;;;67.00;42.83;;;-0.20;99.90;;;;;;4930295;28;89319;-30
2022/12/17 13:55:22;;;;;;;78.05;50.47;;;-0.20;99.90;;;;;;4931047;28;89458;-30
2022/12/17 13:57:49;;;;;;;65.60;41.95;;;-0.30;99.90;;;;;;4931155;28;88004;-30
2022/12/17 14:00:24;;;;;;;81.95;49.67;;;-0.30;99.90;;;;;;4928896;28;89001;-32
2022/12/17 14:02:51;;;;;;;75.20;46.60;;;-0.30;99.90;;;;;;4929545;28;90297;-32
2022/12/17 14:05:29;;;;;;;71.10;45.80;;;-0.40;99.90;;;;;;4931654;28;88602;-32
2022/12/17 14:07:58;;;;;;;76.05;45.10;;;-0.30;99.90;;;;;;4931161;28;88020;-32
2022/12/17 14:10:24;;;;;;;74.25;48.45;;;-0.30;99.90;;;;;;4930379;28;88385;-34
2022/12/17 14:12:50;;;;;;;75.15;48.40;;;-0.40;99.90;;;;;;4930266;28;90218;-33
2022/12/17 14:15:28;;;;;;;66.80;44.15;;;-0.40;99.90;;;;;;4930383;28;89546;-30
2022/12/17 14:17:54;;;;;;;;;;;-0.30;99.90;;;;;;4930727;28;88609;-31
2022/12/17 14:20:24;;;;;;;63.40;41.88;;;-0.40;99.90;;;;;;4932804;28;90044;-30
2022/12/17 14:22:53;;;;;;;64.68;43.08;;;-0.40;99.90;;;;;;4930367;28;88432;-34
2022/12/17 14:25:23;;;;;;;73.72;49.22;;;-0.40;99.90;;;;;;4930013;28;89145;-30
2022/12/17 14:27:57;;;;;;;72.82;45.22;;;-0.50;99.90;;;;;;4929111;28;89911;-31
2022/12/17 14:30:42;;;;;;;72.72;48.17;;;-0.60;99.90;;;;;;4929619;28;89761;-32
2022/12/17 14:33:24;;;;;;;77.57;47.95;;;-0.60;99.90;;;;;;4930422;28;88609;-31
2022/12/17 14:35:51;;;;;;;75.05;44.10;;;-0.70;99.90;;;;;;4928113;28;88598;-32
2022/12/17 14:38:17;;;;;;;82.70;49.30;;;-0.60;99.90;;;;;;4928738;28;87674;-32
2022/12/17 14:40:43;;;;;;;80.18;46.13;;;-0.60;99.90;;;;;;4929394;28;90103;-32
2022/12/17 14:43:12;;;;;;;68.53;42.38;;;-0.70;99.90;;;;;;4924698;28;89615;-34
2022/12/17 14:46:19;;;;;;;72.47;43.42;;;-0.70;99.90;;;;;;4916726;28;89962;-33
2022/12/17 14:48:59;;;;;;;75.72;39.38;;;-0.80;99.90;;;;;;4926610;28;89600;-33
2022/12/17 14:51:42;;;;;;;71.55;36.53;;;-0.80;99.90;;;;;;4926998;28;90485;-32
2022/12/17 14:54:18;;;;;;;64.38;37.78;;;-0.80;99.90;;;;;;4923212;28;91047;-30
2022/12/17 14:56:46;;;;;;;69.60;43.30;;;-0.80;99.90;;;;;;4929247;28;91846;-34
2022/12/17 14:59:24;;;;;;;80.70;46.72;;;-0.90;99.90;;;;;;4928849;28;88472;-33
2022/12/17 15:01:51;;;;;;;70.70;44.80;;;-0.90;99.90;;;;;;4924678;28;89105;-32
2022/12/17 15:04:17;;;;;;;70.75;40.90;;;-0.90;99.90;;;;;;4922949;28;89387;-32
2022/12/17 15:06:43;;;;;;;63.40;38.65;;;-1.00;99.90;;;;;;4923292;28;89586;-32
2022/12/17 15:09:11;;;;;;;67.85;40.80;;;-1.10;99.90;;;;;;4925646;28;88536;-33
2022/12/17 15:11:36;;;;;;;66.60;39.67;;;-1.10;99.90;;;;;;4925258;28;90351;-31
2022/12/17 15:14:02;;;;;;;73.05;42.58;;;-1.10;99.90;;;;;;4927364;28;89962;-31
2022/12/17 15:16:28;;;;;;;73.43;44.92;;;-1.10;99.90;;;;;;4927180;28;89633;-31
2022/12/17 15:18:53;;;;;;;68.82;43.72;;;-1.20;99.90;;;;;;4924762;28;89120;-32
2022/12/17 15:21:19;;;;;;;74.38;43.45;;;-1.20;99.90;;;;;;4923281;28;89685;-32
2022/12/17 15:23:46;;;;;;;68.82;38.05;;;-1.20;99.90;;;;;;4924907;28;89505;-32
2022/12/17 15:26:14;;;;;;;73.20;39.80;;;-1.20;99.90;;;;;;4924583;28;89341;-33
2022/12/17 15:28:40;;;;;;;71.77;43.00;;;-1.10;99.90;;;;;;4923854;28;90122;-33
2022/12/17 15:31:07;;;;;;;76.82;46.20;;;-1.20;99.90;;;;;;4924978;28;90300;-32
2022/12/17 15:33:33;;;;;;;75.82;43.10;;;-1.20;99.90;;;;;;4913300;28;89542;-33
2022/12/17 15:35:59;;;;;;;72.30;38.17;;;-1.20;99.90;;;;;;4927446;28;89615;-34
2022/12/17 15:38:24;;;;;;;71.50;42.72;;;-1.20;99.90;;;;;;4929071;28;88567;-32
2022/12/17 15:40:50;;;;;;;73.18;42.40;;;-1.30;99.90;;;;;;4925149;28;89730;-31
2022/12/17 15:43:15;;;;;;;84.35;46.40;;;-1.30;99.90;;;;;;4919527;28;89732;-32
2022/12/17 15:45:43;;;;;;;85.57;46.08;;;-1.30;99.90;;;;;;4918648;28;90760;-32
2022/12/17 15:48:10;;;;;;;86.20;47.43;;;-1.30;99.90;;;;;;4920984;28;88186;-31
2022/12/17 15:50:36;;;;;;;74.15;44.83;;;-1.40;99.90;;;;;;4911200;28;89977;-34
2022/12/17 15:53:02;;;;;;;77.82;45.17;;;-1.40;99.90;;;;;;4924074;28;89620;-31
2022/12/17 15:55:28;;;;;;;79.82;45.90;;;-1.40;99.90;;;;;;4918764;28;89900;-32
2022/12/17 15:57:54;;;;;;;82.70;45.10;;;-1.40;99.90;;;;;;4918827;28;88740;-34
2022/12/17 16:00:20;;;;;;;92.45;52.42;;;-1.30;99.90;;;;;;4919073;28;89841;-32
2022/12/17 16:02:47;;;;;;;73.40;39.42;;;-1.30;99.90;;;;;;4919056;28;89631;-32
2022/12/17 16:05:13;;;;;;;81.85;48.72;;;-1.30;99.90;;;;;;4919560;28;89382;-29
2022/12/17 16:07:39;;;;;;;89.07;53.85;;;-1.30;99.90;;;;;;4916768;28;88658;-32
2022/12/17 16:10:05;;;;;;;88.43;49.13;;;-1.30;99.90;;;;;;4908751;28;90749;-33
2022/12/17 16:12:31;;;;;;;80.00;47.72;;;-1.30;99.90;;;;;;4918288;28;89510;-32
2022/12/17 16:14:57;;;;;;;87.60;49.95;;;-1.40;99.90;;;;;;4916892;28;89485;-31
2022/12/17 16:17:23;;;;;;;85.38;47.00;;;-1.40;99.90;;;;;;4917469;28;89474;-30
2022/12/17 16:19:48;;;;;;;88.10;48.53;;;-1.40;99.90;;;;;;4916890;28;90142;-30
2022/12/17 16:22:14;;;;;;;88.07;49.17;;;-1.40;99.90;;;;;;4916951;28;90611;-32
2022/12/17 16:24:39;;;;;;;81.70;48.35;;;-1.50;99.90;;;;;;4917412;28;89066;-31
2022/12/17 16:27:06;;;;;;;93.00;53.08;;;-1.50;99.90;;;;;;4914862;28;89889;-33
2022/12/17 16:29:31;;;;;;;89.07;51.35;;;-1.50;99.90;;;;;;4917980;28;89590;-34
2022/12/17 16:31:58;;;;;;;72.85;43.22;;;-1.50;99.90;;;;;;4916530;28;90527;-30
2022/12/17 16:34:23;;;;;;;72.93;47.60;;;-1.40;99.90;;;;;;4916712;28;91025;-35
2022/12/17 16:36:49;;;;;;;78.55;46.15;;;-1.40;99.90;;;;;;4917677;28;90141;-30
2022/12/17 16:39:17;;;;;;;82.15;47.92;;;-1.50;99.90;;;;;;4918129;28;90166;-32
2022/12/17 16:41:43;;;;;;;84.93;50.97;;;-1.50;99.90;;;;;;4920021;28;89791;-31
2022/12/17 16:44:08;;;;;;;82.40;44.75;;;-1.50;99.90;;;;;;4921995;28;90102;-31
2022/12/17 16:46:39;;;;;;;84.93;49.90;;;-1.50;99.90;;;;;;4936666;28;89086;-33
2022/12/17 16:49:18;;;;;;;82.68;50.53;;;-1.50;99.90;;;;;;4935511;28;90639;-30
2022/12/17 16:51:45;;;;;;;78.78;48.90;;;-1.50;99.90;;;;;;4936308;28;89749;-32
2022/12/17 16:54:16;;;;;;;88.82;52.78;;;-1.50;99.90;;;;;;4922430;28;89685;-31
2022/12/17 16:56:42;;;;;;;74.65;49.05;;;-1.50;99.90;;;;;;4917752;28;89550;-32
2022/12/17 16:59:09;;;;;;;83.15;49.97;;;-1.50;99.90;;;;;;4918438;28;90707;-31
2022/12/17 17:01:36;;;;;;;80.28;50.60;;;-1.50;99.90;;;;;;4917480;28;88092;-31
2022/12/17 17:04:04;;;;;;;73.35;48.53;;;-1.60;99.90;;;;;;4918155;28;90277;-32
2022/12/17 17:06:30;;;;;;;78.68;50.53;;;-1.60;99.90;;;;;;4918361;28;90028;-32
2022/12/17 17:08:55;;;;;;;90.13;50.60;;;-1.50;99.90;;;;;;4917408;28;90711;-30
2022/12/17 17:11:23;;;;;;;62.45;40.40;;;-1.60;99.90;;;;;;4918253;28;89712;-31
2022/12/17 17:13:50;;;;;;;81.07;47.50;;;-1.60;99.90;;;;;;4918772;28;88667;-30
2022/12/17 17:16:18;;;;;;;79.28;51.63;;;-1.60;99.90;;;;;;4918947;28;89905;-32
2022/12/17 17:18:43;;;;;;;75.22;48.33;;;-1.60;99.90;;;;;;4917424;28;90643;-33
2022/12/17 17:21:22;;;;;;;80.88;51.25;;;-1.70;99.90;;;;;;4917862;28;90455;-32
2022/12/17 17:23:58;;;;;;;85.20;51.58;;;-1.70;99.90;;;;;;4918630;28;90520;-31
2022/12/17 17:26:25;;;;;;;89.38;51.97;;;-1.70;99.90;;;;;;4918384;28;90296;-33
2022/12/17 17:28:51;;;;;;;91.03;53.08;;;-1.70;99.90;;;;;;4917113;28;89208;-29
2022/12/17 17:31:18;;;;;;;83.15;53.65;;;-1.70;99.90;;;;;;4917982;28;90368;-33
2022/12/17 17:33:46;;;;;;;87.20;54.00;;;-1.70;99.90;;;;;;4918150;28;89146;-31
2022/12/17 17:36:14;;;;;;;83.78;52.53;;;-1.70;99.90;;;;;;4918491;28;89411;-32
2022/12/17 17:38:40;;;;;;;69.10;44.78;;;-1.70;99.90;;;;;;4917430;28;89446;-31
2022/12/17 17:41:09;;;;;;;94.07;54.28;;;-1.70;99.90;;;;;;4917158;28;89905;-33
2022/12/17 17:43:34;;;;;;;;;;;-1.70;99.90;;;;;;4917915;28;89670;-32
2022/12/17 17:46:05;;;;;;;74.07;50.17;;;-1.70;99.90;;;;;;4919207;28;89577;-32
2022/12/17 17:48:34;;;;;;;80.88;51.03;;;-1.70;99.90;;;;;;4918101;28;90435;-31
2022/12/17 17:51:03;;;;;;;75.85;50.15;;;-1.60;99.90;;;;;;4918013;28;91298;-32
2022/12/17 17:53:29;;;;;;;90.43;56.65;;;-1.60;99.90;;;;;;4917310;28;90912;-33
2022/12/17 17:56:04;;;;;;;87.57;55.95;;;-1.70;99.90;;;;;;4918160;28;89466;-32
2022/12/17 17:58:31;;;;;;;94.03;58.67;;;-1.70;99.90;;;;;;4916378;28;90186;-30
2022/12/17 18:00:57;;;;;;;83.65;54.47;;;-1.70;99.90;;;;;;4916949;28;89944;-32
2022/12/17 18:03:23;;;;;;;77.57;50.55;;;-1.80;99.90;;;;;;4917503;28;90293;-34
2022/12/17 18:05:48;;;;;;;80.00;52.83;;;-1.80;99.90;;;;;;4917651;28;89122;-32
2022/12/17 18:08:14;;;;;;;79.53;44.35;;;-1.80;99.90;;;;;;4916991;28;90332;-33
2022/12/17 18:10:40;;;;;;;92.85;60.95;;;-1.80;99.90;;;;;;4917470;28;90686;-31
2022/12/17 18:15:51;;;;;;;86.00;58.35;;;-1.80;99.90;;;;;;4917724;28;89055;-33
2022/12/17 18:18:17;;;;;;;95.63;57.85;;;-1.80;99.90;;;;;;4917231;28;90197;-32
2022/12/17 18:20:42;;;;;;;91.45;61.17;;;-1.80;99.90;;;;;;4918693;28;88640;-33
2022/12/17 18:23:08;;;;;;;100.82;64.88;;;-1.70;99.90;;;;;;4920027;28;89483;-30
2022/12/17 18:25:34;;;;;;;95.28;62.58;;;-1.80;99.90;;;;;;4919059;28;88827;-32
2022/12/17 18:27:59;;;;;;;88.78;59.10;;;-1.80;99.90;;;;;;4918595;28;90975;-31
2022/12/17 18:30:25;;;;;;;105.15;63.65;;;-1.80;99.90;;;;;;4918837;28;88988;-33
2022/12/17 18:32:50;;;;;;;102.30;63.67;;;-1.80;99.90;;;;;;4919403;28;89324;-30
2022/12/17 18:35:16;;;;;;;95.60;64.93;;;-1.80;99.90;;;;;;4919487;28;90027;-31
2022/12/17 18:37:42;;;;;;;97.53;64.55;;;-1.80;99.90;;;;;;4918748;28;90273;-32
2022/12/17 18:40:08;;;;;;;94.90;63.80;;;-1.80;99.90;;;;;;4919446;28;89771;-34
2022/12/17 18:45:18;;;;;;;89.95;57.03;;;-1.70;99.90;;;;;;4919967;28;88714;-32
2022/12/17 18:47:44;;;;;;;93.88;65.18;;;-1.70;99.90;;;;;;4918858;28;90186;-33
2022/12/17 18:50:11;;;;;;;92.45;57.17;;;-1.70;99.90;;;;;;4919207;28;89343;-31
2022/12/17 18:52:37;;;;;;;100.43;60.72;;;-1.80;99.90;;;;;;4919105;28;89904;-30
2022/12/17 18:55:03;;;;;;;111.85;65.97;;;-1.80;99.90;;;;;;4919444;28;88162;-31
2022/12/17 18:57:28;;;;;;;104.10;62.17;;;-1.80;99.90;;;;;;4918274;28;91407;-34
2022/12/17 18:59:54;;;;;;;100.88;64.20;;;-1.90;99.90;;;;;;4918852;28;89988;-31
2022/12/17 19:02:19;;;;;;;107.40;62.65;;;-1.90;99.90;;;;;;4918700;28;90489;-31
2022/12/17 19:04:45;;;;;;;107.95;68.07;;;-1.90;99.90;;;;;;4919581;28;89928;-31
2022/12/17 19:07:11;;;;;;;109.10;66.13;;;-1.90;99.90;;;;;;4918707;28;90133;-31
2022/12/17 19:09:38;;;;;;;113.65;67.35;;;-1.90;99.90;;;;;;4918989;28;89704;-32
2022/12/17 19:12:05;;;;;;;117.22;67.68;;;-2.00;99.90;;;;;;4919262;28;89578;-30
2022/12/17 19:14:31;;;;;;;97.47;66.33;;;-1.90;99.90;;;;;;4918697;28;88704;-33
2022/12/17 19:16:57;;;;;;;84.32;50.17;;;-1.90;99.90;;;;;;4919080;28;89762;-32
2022/12/17 19:19:23;;;;;;;109.40;70.18;;;-1.90;99.90;;;;;;4918988;28;89685;-31
2022/12/17 19:21:50;;;;;;;107.90;61.35;;;-1.90;99.90;;;;;;4918234;28;89257;-31
2022/12/17 19:24:18;;;;;;;93.60;61.42;;;-1.90;99.90;;;;;;4918743;28;89580;-30
2022/12/17 19:26:44;;;;;;;90.43;58.75;;;-2.00;99.90;;;;;;4918397;28;89801;-31
2022/12/17 19:29:12;;;;;;;106.40;63.75;;;-2.00;99.90;;;;;;4918559;28;89649;-32
2022/12/17 19:31:38;;;;;;;83.88;58.42;;;-2.00;99.90;;;;;;4917812;28;89751;-30
2022/12/17 19:34:06;;;;;;;96.10;59.33;;;-1.90;99.90;;;;;;4922416;28;89213;-32
2022/12/17 19:36:33;;;;;;;106.13;65.68;;;-1.90;99.90;;;;;;4921750;28;90199;-30
2022/12/17 19:39:01;;;;;;;104.90;67.40;;;-2.00;99.90;;;;;;4921989;28;89666;-31
2022/12/17 19:41:28;;;;;;;99.05;62.42;;;-2.00;99.90;;;;;;4921628;28;90367;-30
2022/12/17 19:44:00;;;;;;;118.10;68.57;;;-2.00;99.90;;;;;;4922010;28;88498;-33
2022/12/17 19:46:26;;;;;;;103.50;67.80;;;-2.00;99.90;;;;;;4921740;28;90350;-32
2022/12/17 19:48:53;;;;;;;103.90;63.97;;;-2.00;99.90;;;;;;4921437;28;90825;-29
2022/12/17 19:51:21;;;;;;;112.30;69.60;;;-2.00;99.90;;;;;;4921561;28;89953;-31
2022/12/17 19:53:47;;;;;;;89.28;57.42;;;-2.00;99.90;;;;;;4921154;28;88438;-32
2022/12/17 19:56:25;;;;;;;112.07;69.13;;;-2.00;99.90;;;;;;4922175;28;90293;-34
2022/12/17 19:58:54;;;;;;;99.20;64.68;;;-2.00;99.90;;;;;;4921445;28;90258;-33
2022/12/17 20:01:22;;;;;;;114.10;70.03;;;-1.90;99.90;;;;;;4921730;28;89065;-31
2022/12/17 20:03:49;;;;;;;105.45;69.72;;;-2.00;99.90;;;;;;4921733;28;88871;-30
2022/12/17 20:06:16;;;;;;;104.80;67.78;;;-2.00;99.90;;;;;;4921523;28;90210;-32
2022/12/17 20:08:42;;;;;;;90.40;56.78;;;-2.00;99.90;;;;;;4920779;28;90544;-32
2022/12/17 20:13:59;;;;;;;106.40;67.80;;;-2.00;99.90;;;;;;4921017;28;89337;-32
2022/12/17 20:16:25;;;;;;;122.15;65.97;;;-2.10;99.90;;;;;;4921060;28;90983;-32
2022/12/17 20:18:51;;;;;;;102.75;66.00;;;-2.10;99.90;;;;;;4921272;28;90230;-30
2022/12/17 20:21:17;;;;;;;106.15;66.60;;;-2.00;99.90;;;;;;4921362;28;89520;-34
2022/12/17 20:23:49;;;;;;;99.63;62.72;;;-2.10;99.90;;;;;;4920785;28;88094;-31
2022/12/17 20:26:16;;;;;;;98.68;58.85;;;-2.10;99.90;;;;;;4921723;28;90248;-30
2022/12/17 20:28:43;;;;;;;96.70;57.13;;;-2.20;99.90;;;;;;4920287;28;89508;-32
2022/12/17 20:31:08;;;;;;;89.07;60.45;;;-2.10;99.90;;;;;;4920865;28;89623;-34
2022/12/17 20:33:34;;;;;;;86.07;55.92;;;-2.10;99.90;;;;;;4919862;28;88937;-30
2022/12/17 20:36:09;;;;;;;108.30;63.17;;;-2.10;99.90;;;;;;4920572;28;90304;-31
2022/12/17 20:38:35;;;;;;;90.93;56.60;;;-2.20;99.90;;;;;;4920289;28;90655;-31
2022/12/17 20:41:01;;;;;;;110.82;68.00;;;-2.20;99.90;;;;;;4920449;28;90846;-36
2022/12/17 20:43:26;;;;;;;102.13;62.50;;;-2.20;99.90;;;;;;4919069;28;88921;-31
2022/12/17 20:45:55;;;;;;;102.10;63.40;;;-2.20;99.90;;;;;;4919127;28;90529;-30
2022/12/17 20:48:22;;;;;;;103.03;62.58;;;-2.20;99.90;;;;;;4919182;28;90258;-32
2022/12/17 20:50:48;;;;;;;112.88;64.90;;;-2.30;99.90;;;;;;4918432;28;89846;-31
2022/12/17 20:53:13;;;;;;;92.90;60.53;;;-2.20;99.90;;;;;;4918790;28;88759;-35
2022/12/17 20:55:39;;;;;;;114.32;67.07;;;-2.30;99.90;;;;;;4924490;28;89456;-31
2022/12/17 20:58:05;;;;;;;119.63;70.00;;;-2.30;99.90;;;;;;4924107;28;89411;-34
2022/12/17 21:00:30;;;;;;;100.40;68.15;;;-2.30;99.90;;;;;;4928312;28;89211;-32
2022/12/17 21:02:56;;;;;;;111.82;69.97;;;-2.30;99.90;;;;;;4921713;28;89482;-33
2022/12/17 21:05:22;;;;;;;111.32;68.25;;;-2.20;99.90;;;;;;4926335;28;90572;-33
2022/12/17 21:07:49;;;;;;;120.85;65.72;;;-2.30;99.90;;;;;;4925262;28;90118;-32
2022/12/17 21:10:15;;;;;;;103.60;66.25;;;-2.30;99.90;;;;;;4924197;28;89300;-30
2022/12/17 21:15:27;;;;;;;107.93;62.53;;;-2.30;99.90;;;;;;4923394;28;92259;-32
2022/12/17 21:17:53;;;;;;;105.03;60.33;;;-2.30;99.90;;;;;;4927348;28;89591;-32
2022/12/17 21:20:19;;;;;;;93.60;57.65;;;-2.40;99.90;;;;;;4924877;28;90003;-30
2022/12/17 21:22:44;;;;;;;103.22;67.10;;;-2.40;99.90;;;;;;4927310;28;88570;-30
2022/12/17 21:25:10;;;;;;;105.05;66.28;;;-2.40;99.90;;;;;;4924349;28;90339;-31
2022/12/17 21:27:35;;;;;;;103.95;65.32;;;-2.40;99.90;;;;;;4966988;22;90462;-32
2022/12/17 21:30:01;;;;;;;113.70;67.50;;;-2.40;99.90;;;;;;4944662;28;90174;-31
2022/12/17 21:32:27;;;;;;;116.57;69.22;;;-2.40;99.90;;;;;;4944414;28;89851;-31
2022/12/17 21:34:52;;;;;;;113.32;68.72;;;-2.40;99.90;;;;;;4944857;28;90122;-34
2022/12/17 21:37:21;;;;;;;122.63;67.82;;;-2.40;99.90;;;;;;4943264;28;90122;-31
2022/12/17 21:39:47;;;;;;;114.78;69.70;;;-2.40;99.90;;;;;;4946593;28;89959;-31
2022/12/17 21:44:57;;;;;;;111.93;70.55;;;-2.40;99.90;;;;;;4932151;28;90159;-33
2022/12/17 21:47:23;;;;;;;98.68;63.38;;;-2.40;99.90;;;;;;4939200;28;89691;-30
2022/12/17 21:49:48;;;;;;;105.88;62.78;;;-2.40;99.90;;;;;;4939707;28;89878;-31
2022/12/17 21:52:14;;;;;;;111.68;63.92;;;-2.40;99.90;;;;;;4938684;28;89590;-32
2022/12/17 21:54:40;;;;;;;86.65;55.80;;;-2.40;99.90;;;;;;4938820;28;90313;-31
2022/12/17 21:57:05;;;;;;;110.90;61.88;;;-2.40;99.90;;;;;;4939414;28;89552;-32
2022/12/17 21:59:31;;;;;;;112.80;65.75;;;-2.50;99.90;;;;;;4938490;28;89429;-30
2022/12/17 22:01:56;;;;;;;101.13;62.30;;;-2.50;99.90;;;;;;4939446;28;90403;-32
2022/12/17 22:04:23;;;;;;;95.05;60.33;;;-2.50;99.90;;;;;;4938384;28;89741;-31
2022/12/17 22:06:49;;;;;;;108.88;64.82;;;-2.50;99.90;;;;;;4938805;28;90692;-32
2022/12/17 22:09:15;;;;;;;97.93;56.30;;;-2.50;99.90;;;;;;4939060;28;91721;-31
2022/12/17 22:11:40;;;;;;;98.28;57.33;;;-2.60;99.90;;;;;;4938533;28;89231;-30
2022/12/17 22:14:11;;;;;;;106.32;59.03;;;-2.50;99.90;;;;;;4939769;28;90131;-30
2022/12/17 22:16:48;;;;;;;97.55;56.70;;;-2.60;99.90;;;;;;4917579;28;90453;-33
2022/12/17 22:19:19;;;;;;;98.40;61.10;;;-2.60;99.90;;;;;;4933843;28;90035;-32
2022/12/17 22:21:46;;;;;;;106.32;60.65;;;-2.60;99.90;;;;;;4938743;28;88372;-31
2022/12/17 22:24:17;;;;;;;109.38;61.40;;;-2.70;99.90;;;;;;4939194;28;90016;-31
2022/12/17 22:26:43;;;;;;;88.63;55.03;;;-2.70;99.90;;;;;;4938548;28;89918;-31
2022/12/17 22:29:08;;;;;;;98.00;57.17;;;-2.70;99.90;;;;;;4933818;28;89878;-34
2022/12/17 22:34:18;;;;;;;87.80;48.33;;;-2.70;99.90;;;;;;4939028;28;91133;-33
2022/12/17 22:36:44;;;;;;;98.07;57.85;;;-2.70;99.90;;;;;;4938324;28;89557;-33
2022/12/17 22:39:12;;;;;;;92.45;52.40;;;-2.80;99.90;;;;;;4938518;28;89795;-34
2022/12/17 22:44:24;;;;;;;100.20;55.10;;;-2.80;99.90;;;;;;4938431;28;90730;-34
2022/12/17 22:46:50;;;;;;;101.85;53.42;;;-2.80;99.90;;;;;;4933875;28;89118;-31
2022/12/17 22:49:16;;;;;;;96.20;56.47;;;-2.80;99.90;;;;;;4937374;28;90623;-31
2022/12/17 22:51:42;;;;;;;78.82;50.38;;;-2.80;99.90;;;;;;4938704;28;89513;-31
2022/12/17 22:54:09;;;;;;;97.63;55.50;;;-2.80;99.90;;;;;;4939127;28;89670;-30
2022/12/17 22:56:37;;;;;;;87.78;52.47;;;-2.90;99.90;;;;;;4938411;28;89406;-33
2022/12/17 22:59:03;;;;;;;83.85;44.10;;;-2.90;99.90;;;;;;4938723;28;89629;-31
2022/12/17 23:01:30;;;;;;;89.20;53.22;;;-2.90;99.90;;;;;;4938854;28;89126;-30
2022/12/17 23:04:00;;;;;;;100.63;56.25;;;-3.00;99.90;;;;;;4939109;28;89821;-30
2022/12/17 23:06:26;;;;;;;81.65;46.00;;;-2.90;99.90;;;;;;4938379;28;90566;-29
2022/12/17 23:08:52;;;;;;;82.50;53.35;;;-3.00;99.90;;;;;;4941459;28;90288;-31
2022/12/17 23:11:23;;;;;;;103.13;57.30;;;-3.00;99.90;;;;;;4942070;28;89696;-32
2022/12/17 23:13:50;;;;;;;89.88;52.92;;;-3.10;99.90;;;;;;4941955;28;90016;-33
2022/12/17 23:16:16;;;;;;;92.55;51.33;;;-3.10;99.90;;;;;;4942602;28;89525;-32
2022/12/17 23:18:43;;;;;;;101.82;58.05;;;-3.10;99.90;;;;;;4941709;28;89740;-31
2022/12/17 23:21:11;;;;;;;95.88;58.33;;;-3.10;99.90;;;;;;4941345;28;89038;-33
2022/12/17 23:23:37;;;;;;;118.40;60.15;;;-3.10;99.90;;;;;;4942317;28;90434;-31
2022/12/17 23:26:15;;;;;;;105.72;61.00;;;-3.10;99.90;;;;;;4941490;28;89360;-33
2022/12/17 23:28:41;;;;;;;94.35;56.45;;;-3.00;99.90;;;;;;4941172;28;89644;-34
2022/12/17 23:31:09;;;;;;;107.78;57.70;;;-3.00;99.90;;;;;;4942584;28;90265;-30
2022/12/17 23:33:35;;;;;;;99.47;56.92;;;-3.00;99.90;;;;;;4941700;28;90435;-32
2022/12/17 23:36:21;;;;;;;112.57;61.70;;;-3.00;99.90;;;;;;4941005;28;88370;-33
2022/12/17 23:38:47;;;;;;;104.65;57.40;;;-3.00;99.90;;;;;;4941339;28;89902;-32
2022/12/17 23:41:19;;;;;;;109.78;63.42;;;-3.00;99.90;;;;;;4942602;28;90167;-33
2022/12/17 23:43:45;;;;;;;114.53;61.65;;;-3.00;99.90;;;;;;4927515;28;91548;-33
2022/12/17 23:46:11;;;;;;;95.38;54.75;;;-3.00;99.90;;;;;;4941933;28;89662;-31
2022/12/17 23:48:39;;;;;;;99.07;59.13;;;-3.00;99.90;;;;;;4940793;28;89873;-30
2022/12/17 23:51:06;;;;;;;89.57;52.85;;;-3.00;99.90;;;;;;4941708;28;89357;-34
2022/12/17 23:53:33;;;;;;;100.68;55.20;;;-3.10;99.90;;;;;;4942289;28;90020;-31
2022/12/17 23:56:08;;;;;;;99.95;52.70;;;-3.10;99.90;;;;;;4941098;28;90733;-32
2022/12/17 23:58:35;;;;;;;97.53;51.92;;;-3.10;99.90;;;;;;4940357;28;90505;-32
